sensor_id;sensor_type;location;lat;lon;timestamp;pressure;altitude;pressure_sealevel;temperature;humidity
23643;BME280;11998;55.788;37.572;2023-04-25T00:00:28;98486.22;;;74.98;4.58
23643;BME280;11998;55.788;37.572;2023-04-25T00:01:29;98484.56;;;74.63;4.38
23643;BME280;11998;55.788;37.572;2023-04-25T00:02:29;98486.47;;;75.42;3.88
23643;BME280;11998;55.788;37.572;2023-04-25T00:03:32;98492.69;;;76.80;3.83
23643;BME280;11998;55.788;37.572;2023-04-25T00:04:32;98495.03;;;76.32;4.10
23643;BME280;11998;55.788;37.572;2023-04-25T00:05:33;98497.78;;;77.15;4.05
23643;BME280;11998;55.788;37.572;2023-04-25T00:06:34;98492.88;;;75.79;4.18
23643;BME280;11998;55.788;37.572;2023-04-25T00:07:36;98496.84;;;74.86;4.19
23643;BME280;11998;55.788;37.572;2023-04-25T00:08:37;98495.22;;;75.51;4.21
23643;BME280;11998;55.788;37.572;2023-04-25T00:09:37;98491.22;;;75.63;4.19
23643;BME280;11998;55.788;37.572;2023-04-25T00:10:38;98497.16;;;76.61;3.82
23643;BME280;11998;55.788;37.572;2023-04-25T00:11:40;98501.50;;;76.36;4.32
23643;BME280;11998;55.788;37.572;2023-04-25T00:12:40;98502.31;;;76.66;3.98
23643;BME280;11998;55.788;37.572;2023-04-25T00:13:41;98497.28;;;75.60;4.35
23643;BME280;11998;55.788;37.572;2023-04-25T00:14:42;98496.53;;;75.74;4.28
23643;BME280;11998;55.788;37.572;2023-04-25T00:15:44;98493.34;;;75.63;4.11
23643;BME280;11998;55.788;37.572;2023-04-25T00:16:46;98503.13;;;76.52;4.15
23643;BME280;11998;55.788;37.572;2023-04-25T00:17:47;98504.28;;;76.01;4.03
23643;BME280;11998;55.788;37.572;2023-04-25T00:18:47;98501.19;;;75.81;4.10
23643;BME280;11998;55.788;37.572;2023-04-25T00:19:51;98497.44;;;76.33;4.02
23643;BME280;11998;55.788;37.572;2023-04-25T00:20:52;98496.47;;;75.59;4.12
23643;BME280;11998;55.788;37.572;2023-04-25T00:21:54;98503.22;;;74.75;4.30
23643;BME280;11998;55.788;37.572;2023-04-25T00:22:54;98500.78;;;74.74;4.54
23643;BME280;11998;55.788;37.572;2023-04-25T00:23:56;98490.69;;;74.84;4.22
23643;BME280;11998;55.788;37.572;2023-04-25T00:24:56;98506.72;;;74.37;4.43
23643;BME280;11998;55.788;37.572;2023-04-25T00:26:00;98487.84;;;74.29;4.33
23643;BME280;11998;55.788;37.572;2023-04-25T00:27:00;98496.84;;;75.52;4.08
23643;BME280;11998;55.788;37.572;2023-04-25T00:28:01;98499.34;;;75.02;4.55
23643;BME280;11998;55.788;37.572;2023-04-25T00:29:02;98493.44;;;76.46;4.28
23643;BME280;11998;55.788;37.572;2023-04-25T00:30:03;98503.13;;;76.22;4.04
23643;BME280;11998;55.788;37.572;2023-04-25T00:31:03;98495.94;;;74.52;4.55
23643;BME280;11998;55.788;37.572;2023-04-25T00:32:04;98492.09;;;73.64;4.73
23643;BME280;11998;55.788;37.572;2023-04-25T00:33:05;98487.66;;;71.82;5.16
23643;BME280;11998;55.788;37.572;2023-04-25T00:34:06;98490.22;;;72.36;5.03
23643;BME280;11998;55.788;37.572;2023-04-25T00:35:08;98497.34;;;72.88;4.93
23643;BME280;11998;55.788;37.572;2023-04-25T00:36:08;98496.88;;;72.37;4.99
23643;BME280;11998;55.788;37.572;2023-04-25T00:37:10;98491.44;;;71.57;5.19
23643;BME280;11998;55.788;37.572;2023-04-25T00:38:10;98497.75;;;70.66;5.40
23643;BME280;11998;55.788;37.572;2023-04-25T00:39:12;98489.53;;;69.78;5.78
23643;BME280;11998;55.788;37.572;2023-04-25T00:40:13;98496.00;;;71.45;5.20
23643;BME280;11998;55.788;37.572;2023-04-25T00:41:14;98484.78;;;69.84;5.50
23643;BME280;11998;55.788;37.572;2023-04-25T00:42:15;98475.72;;;69.00;5.79
23643;BME280;11998;55.788;37.572;2023-04-25T00:43:16;98476.09;;;69.68;5.60
23643;BME280;11998;55.788;37.572;2023-04-25T00:44:16;98481.03;;;67.63;5.94
23643;BME280;11998;55.788;37.572;2023-04-25T00:45:17;98471.94;;;67.84;5.92
23643;BME280;11998;55.788;37.572;2023-04-25T00:46:18;98480.84;;;70.20;5.64
23643;BME280;11998;55.788;37.572;2023-04-25T00:47:19;98475.00;;;67.77;6.01
23643;BME280;11998;55.788;37.572;2023-04-25T00:48:22;98485.69;;;71.06;5.02
23643;BME280;11998;55.788;37.572;2023-04-25T00:49:23;98504.22;;;71.12;5.25
23643;BME280;11998;55.788;37.572;2023-04-25T00:50:24;98528.25;;;71.76;5.23
23643;BME280;11998;55.788;37.572;2023-04-25T00:51:25;98510.31;;;70.63;5.33
23643;BME280;11998;55.788;37.572;2023-04-25T00:52:26;98508.25;;;69.61;5.58
23643;BME280;11998;55.788;37.572;2023-04-25T00:53:28;98500.06;;;69.55;5.42
23643;BME280;11998;55.788;37.572;2023-04-25T00:54:30;98500.53;;;70.57;5.38
23643;BME280;11998;55.788;37.572;2023-04-25T00:55:31;98508.41;;;71.24;5.29
23643;BME280;11998;55.788;37.572;2023-04-25T00:56:31;98502.88;;;70.62;5.32
23643;BME280;11998;55.788;37.572;2023-04-25T00:57:32;98497.41;;;70.23;5.63
23643;BME280;11998;55.788;37.572;2023-04-25T00:58:33;98502.78;;;70.08;5.35
23643;BME280;11998;55.788;37.572;2023-04-25T00:59:34;98499.53;;;70.89;5.43
23643;BME280;11998;55.788;37.572;2023-04-25T01:00:36;98504.19;;;71.50;5.19
23643;BME280;11998;55.788;37.572;2023-04-25T01:01:38;98499.81;;;68.97;5.82
23643;BME280;11998;55.788;37.572;2023-04-25T01:02:40;98497.25;;;68.83;6.01
23643;BME280;11998;55.788;37.572;2023-04-25T01:03:40;98496.94;;;69.46;5.60
23643;BME280;11998;55.788;37.572;2023-04-25T01:04:41;98501.03;;;70.27;5.66
23643;BME280;11998;55.788;37.572;2023-04-25T01:05:42;98498.03;;;71.10;5.35
23643;BME280;11998;55.788;37.572;2023-04-25T01:06:42;98506.16;;;72.45;4.98
23643;BME280;11998;55.788;37.572;2023-04-25T01:07:43;98501.50;;;71.91;5.25
23643;BME280;11998;55.788;37.572;2023-04-25T01:08:43;98492.94;;;72.53;5.20
23643;BME280;11998;55.788;37.572;2023-04-25T01:09:45;98503.78;;;72.74;5.03
23643;BME280;11998;55.788;37.572;2023-04-25T01:10:46;98494.28;;;73.32;4.87
23643;BME280;11998;55.788;37.572;2023-04-25T01:11:46;98494.28;;;72.17;5.04
23643;BME280;11998;55.788;37.572;2023-04-25T01:12:47;98488.75;;;72.10;5.29
23643;BME280;11998;55.788;37.572;2023-04-25T01:13:47;98485.81;;;71.28;5.45
23643;BME280;11998;55.788;37.572;2023-04-25T01:14:48;98486.94;;;71.91;5.01
23643;BME280;11998;55.788;37.572;2023-04-25T01:15:49;98480.03;;;72.19;5.02
23643;BME280;11998;55.788;37.572;2023-04-25T01:16:49;98480.53;;;71.96;5.07
23643;BME280;11998;55.788;37.572;2023-04-25T01:17:50;98483.53;;;73.88;4.65
23643;BME280;11998;55.788;37.572;2023-04-25T01:18:51;98482.22;;;73.12;4.84
23643;BME280;11998;55.788;37.572;2023-04-25T01:19:52;98482.22;;;73.98;4.73
23643;BME280;11998;55.788;37.572;2023-04-25T01:20:53;98487.78;;;74.65;4.46
23643;BME280;11998;55.788;37.572;2023-04-25T01:21:54;98472.63;;;73.79;4.81
23643;BME280;11998;55.788;37.572;2023-04-25T01:22:55;98479.09;;;74.89;4.29
23643;BME280;11998;55.788;37.572;2023-04-25T01:23:56;98478.69;;;74.73;4.25
23643;BME280;11998;55.788;37.572;2023-04-25T01:24:57;98471.81;;;74.85;4.63
23643;BME280;11998;55.788;37.572;2023-04-25T01:25:59;98479.03;;;73.37;4.84
23643;BME280;11998;55.788;37.572;2023-04-25T01:27:00;98476.84;;;74.15;4.80
23643;BME280;11998;55.788;37.572;2023-04-25T01:28:02;98493.53;;;74.51;4.70
23643;BME280;11998;55.788;37.572;2023-04-25T01:29:04;98487.56;;;74.18;4.68
23643;BME280;11998;55.788;37.572;2023-04-25T01:30:06;98501.91;;;75.18;4.28
23643;BME280;11998;55.788;37.572;2023-04-25T01:31:10;98490.75;;;75.08;4.57
23643;BME280;11998;55.788;37.572;2023-04-25T01:32:11;98488.25;;;74.82;4.41
23643;BME280;11998;55.788;37.572;2023-04-25T01:33:14;98511.16;;;79.44;3.79
23643;BME280;11998;55.788;37.572;2023-04-25T01:34:15;98516.56;;;80.22;3.48
23643;BME280;11998;55.788;37.572;2023-04-25T01:35:16;98517.88;;;80.15;3.81
23643;BME280;11998;55.788;37.572;2023-04-25T01:36:17;98531.16;;;82.91;3.30
23643;BME280;11998;55.788;37.572;2023-04-25T01:37:18;98519.91;;;82.84;3.11
23643;BME280;11998;55.788;37.572;2023-04-25T01:38:19;98530.91;;;84.38;3.03
23643;BME280;11998;55.788;37.572;2023-04-25T01:39:20;98531.25;;;83.78;3.02
23643;BME280;11998;55.788;37.572;2023-04-25T01:40:21;98529.66;;;83.77;3.31
23643;BME280;11998;55.788;37.572;2023-04-25T01:41:22;98521.22;;;82.59;3.27
23643;BME280;11998;55.788;37.572;2023-04-25T01:42:23;98518.44;;;81.89;3.19
23643;BME280;11998;55.788;37.572;2023-04-25T01:43:24;98513.91;;;82.95;3.05
23643;BME280;11998;55.788;37.572;2023-04-25T01:44:24;98509.34;;;81.01;3.73
23643;BME280;11998;55.788;37.572;2023-04-25T01:45:25;98514.25;;;82.20;3.30
23643;BME280;11998;55.788;37.572;2023-04-25T01:46:26;98511.06;;;82.13;3.36
23643;BME280;11998;55.788;37.572;2023-04-25T01:47:27;98524.63;;;82.38;3.47
23643;BME280;11998;55.788;37.572;2023-04-25T01:48:28;98508.03;;;80.52;3.48
23643;BME280;11998;55.788;37.572;2023-04-25T01:49:28;98514.94;;;80.15;3.72
23643;BME280;11998;55.788;37.572;2023-04-25T01:50:29;98509.34;;;80.96;3.58
23643;BME280;11998;55.788;37.572;2023-04-25T01:51:30;98497.78;;;81.09;3.58
23643;BME280;11998;55.788;37.572;2023-04-25T01:52:31;98501.84;;;81.75;3.37
23643;BME280;11998;55.788;37.572;2023-04-25T01:53:32;98496.22;;;80.86;3.47
23643;BME280;11998;55.788;37.572;2023-04-25T01:54:32;98507.13;;;81.35;3.34
23643;BME280;11998;55.788;37.572;2023-04-25T01:55:33;98505.53;;;81.23;3.41
23643;BME280;11998;55.788;37.572;2023-04-25T01:56:37;98506.94;;;80.89;3.77
23643;BME280;11998;55.788;37.572;2023-04-25T01:57:38;98505.38;;;80.65;3.83
23643;BME280;11998;55.788;37.572;2023-04-25T01:58:38;98509.31;;;81.13;3.35
23643;BME280;11998;55.788;37.572;2023-04-25T01:59:39;98501.06;;;79.56;3.97
23643;BME280;11998;55.788;37.572;2023-04-25T02:00:40;98496.09;;;81.42;3.32
23643;BME280;11998;55.788;37.572;2023-04-25T02:01:41;98495.47;;;79.69;3.57
23643;BME280;11998;55.788;37.572;2023-04-25T02:02:42;98497.81;;;80.31;3.86
23643;BME280;11998;55.788;37.572;2023-04-25T02:03:43;98497.50;;;79.52;3.94
23643;BME280;11998;55.788;37.572;2023-04-25T02:04:43;98507.53;;;81.73;3.43
23643;BME280;11998;55.788;37.572;2023-04-25T02:05:44;98506.44;;;80.68;3.35
23643;BME280;11998;55.788;37.572;2023-04-25T02:06:44;98507.13;;;80.01;3.89
23643;BME280;11998;55.788;37.572;2023-04-25T02:07:46;98508.47;;;80.11;3.50
23643;BME280;11998;55.788;37.572;2023-04-25T02:08:47;98506.72;;;79.17;3.97
23643;BME280;11998;55.788;37.572;2023-04-25T02:09:47;98498.25;;;79.36;3.70
23643;BME280;11998;55.788;37.572;2023-04-25T02:10:48;98497.00;;;80.19;3.85
23643;BME280;11998;55.788;37.572;2023-04-25T02:11:48;98506.38;;;81.18;3.19
23643;BME280;11998;55.788;37.572;2023-04-25T02:12:49;98504.00;;;80.44;3.86
23643;BME280;11998;55.788;37.572;2023-04-25T02:13:49;98507.75;;;80.83;3.71
23643;BME280;11998;55.788;37.572;2023-04-25T02:14:50;98505.56;;;80.22;3.85
23643;BME280;11998;55.788;37.572;2023-04-25T02:15:50;98503.56;;;78.89;3.84
23643;BME280;11998;55.788;37.572;2023-04-25T02:16:52;98489.84;;;76.12;4.52
23643;BME280;11998;55.788;37.572;2023-04-25T02:17:52;98491.00;;;75.67;4.29
23643;BME280;11998;55.788;37.572;2023-04-25T02:18:53;98483.88;;;77.51;4.11
23643;BME280;11998;55.788;37.572;2023-04-25T02:19:54;98494.81;;;79.00;4.07
23643;BME280;11998;55.788;37.572;2023-04-25T02:20:55;98502.81;;;79.91;3.68
23643;BME280;11998;55.788;37.572;2023-04-25T02:21:55;98494.97;;;79.77;3.63
23643;BME280;11998;55.788;37.572;2023-04-25T02:22:57;98494.88;;;80.87;3.35
23643;BME280;11998;55.788;37.572;2023-04-25T02:23:58;98491.25;;;79.87;3.68
23643;BME280;11998;55.788;37.572;2023-04-25T02:24:58;98486.84;;;80.42;3.55
23643;BME280;11998;55.788;37.572;2023-04-25T02:25:59;98498.63;;;80.48;3.42
23643;BME280;11998;55.788;37.572;2023-04-25T02:26:59;98492.75;;;79.60;3.71
23643;BME280;11998;55.788;37.572;2023-04-25T02:28:00;98485.78;;;79.63;3.70
23643;BME280;11998;55.788;37.572;2023-04-25T02:29:00;98492.38;;;80.01;3.56
23643;BME280;11998;55.788;37.572;2023-04-25T02:30:01;98486.19;;;78.91;3.78
23643;BME280;11998;55.788;37.572;2023-04-25T02:31:02;98486.56;;;78.73;3.88
23643;BME280;11998;55.788;37.572;2023-04-25T02:32:02;98487.09;;;79.08;3.76
23643;BME280;11998;55.788;37.572;2023-04-25T02:33:03;98493.59;;;78.81;4.06
23643;BME280;11998;55.788;37.572;2023-04-25T02:34:03;98481.66;;;78.96;3.90
23643;BME280;11998;55.788;37.572;2023-04-25T02:35:05;98481.06;;;79.83;3.67
23643;BME280;11998;55.788;37.572;2023-04-25T02:36:06;98483.84;;;80.25;3.55
23643;BME280;11998;55.788;37.572;2023-04-25T02:37:07;98487.97;;;81.59;3.63
23643;BME280;11998;55.788;37.572;2023-04-25T02:38:08;98498.06;;;82.63;3.31
23643;BME280;11998;55.788;37.572;2023-04-25T02:39:09;98480.16;;;81.61;3.55
23643;BME280;11998;55.788;37.572;2023-04-25T02:40:10;98488.59;;;82.34;3.19
23643;BME280;11998;55.788;37.572;2023-04-25T02:41:11;98485.75;;;82.83;3.16
23643;BME280;11998;55.788;37.572;2023-04-25T02:42:11;98486.91;;;82.74;3.10
23643;BME280;11998;55.788;37.572;2023-04-25T02:43:12;98491.44;;;83.30;2.97
23643;BME280;11998;55.788;37.572;2023-04-25T02:44:12;98495.16;;;83.74;2.96
23643;BME280;11998;55.788;37.572;2023-04-25T02:45:13;98494.38;;;83.92;3.09
23643;BME280;11998;55.788;37.572;2023-04-25T02:46:14;98496.63;;;83.86;3.29
23643;BME280;11998;55.788;37.572;2023-04-25T02:47:14;98494.25;;;84.03;2.79
23643;BME280;11998;55.788;37.572;2023-04-25T02:48:15;98498.06;;;83.60;3.20
23643;BME280;11998;55.788;37.572;2023-04-25T02:49:16;98489.09;;;82.98;3.08
23643;BME280;11998;55.788;37.572;2023-04-25T02:50:16;98491.50;;;82.70;3.30
23643;BME280;11998;55.788;37.572;2023-04-25T02:51:18;98485.38;;;79.93;3.85
23643;BME280;11998;55.788;37.572;2023-04-25T02:52:19;98487.31;;;79.42;3.74
23643;BME280;11998;55.788;37.572;2023-04-25T02:53:19;98482.34;;;78.79;4.20
23643;BME280;11998;55.788;37.572;2023-04-25T02:54:20;98487.16;;;78.45;3.82
23643;BME280;11998;55.788;37.572;2023-04-25T02:55:20;98479.94;;;78.78;4.18
23643;BME280;11998;55.788;37.572;2023-04-25T02:56:22;98482.22;;;79.00;4.20
23643;BME280;11998;55.788;37.572;2023-04-25T02:57:23;98482.88;;;78.46;4.30
23643;BME280;11998;55.788;37.572;2023-04-25T02:58:23;98482.19;;;78.94;4.18
23643;BME280;11998;55.788;37.572;2023-04-25T02:59:24;98477.56;;;77.98;3.94
23643;BME280;11998;55.788;37.572;2023-04-25T03:00:24;98489.03;;;79.65;3.81
23643;BME280;11998;55.788;37.572;2023-04-25T03:01:25;98487.63;;;78.70;3.81
23643;BME280;11998;55.788;37.572;2023-04-25T03:02:25;98479.00;;;75.41;4.52
23643;BME280;11998;55.788;37.572;2023-04-25T03:03:26;98480.50;;;76.67;4.30
23643;BME280;11998;55.788;37.572;2023-04-25T03:04:27;98474.19;;;75.29;4.78
23643;BME280;11998;55.788;37.572;2023-04-25T03:05:27;98481.97;;;77.47;4.41
23643;BME280;11998;55.788;37.572;2023-04-25T03:06:28;98484.47;;;78.47;4.08
23643;BME280;11998;55.788;37.572;2023-04-25T03:07:28;98484.78;;;78.86;4.16
23643;BME280;11998;55.788;37.572;2023-04-25T03:08:29;98484.59;;;79.33;4.12
23643;BME280;11998;55.788;37.572;2023-04-25T03:09:34;98480.94;;;77.30;4.15
23643;BME280;11998;55.788;37.572;2023-04-25T03:10:35;98481.06;;;76.71;4.22
23643;BME280;11998;55.788;37.572;2023-04-25T03:11:38;98478.56;;;77.95;4.10
23643;BME280;11998;55.788;37.572;2023-04-25T03:12:38;98480.88;;;79.01;4.16
23643;BME280;11998;55.788;37.572;2023-04-25T03:13:39;98490.19;;;79.85;3.71
23643;BME280;11998;55.788;37.572;2023-04-25T03:14:39;98490.19;;;79.85;3.58
23643;BME280;11998;55.788;37.572;2023-04-25T03:15:40;98490.50;;;79.33;4.02
23643;BME280;11998;55.788;37.572;2023-04-25T03:16:40;98492.44;;;79.04;4.20
23643;BME280;11998;55.788;37.572;2023-04-25T03:17:41;98488.19;;;77.75;4.32
23643;BME280;11998;55.788;37.572;2023-04-25T03:18:41;98487.72;;;78.81;4.24
23643;BME280;11998;55.788;37.572;2023-04-25T03:19:42;98491.41;;;78.76;4.28
23643;BME280;11998;55.788;37.572;2023-04-25T03:20:42;98489.28;;;79.13;3.72
23643;BME280;11998;55.788;37.572;2023-04-25T03:21:43;98496.38;;;79.33;4.13
23643;BME280;11998;55.788;37.572;2023-04-25T03:22:43;98490.19;;;78.62;4.10
23643;BME280;11998;55.788;37.572;2023-04-25T03:23:44;98490.00;;;78.14;4.01
23643;BME280;11998;55.788;37.572;2023-04-25T03:24:45;98481.75;;;77.31;4.37
23643;BME280;11998;55.788;37.572;2023-04-25T03:25:45;98488.75;;;77.33;4.48
23643;BME280;11998;55.788;37.572;2023-04-25T03:26:46;98481.69;;;77.45;4.20
23643;BME280;11998;55.788;37.572;2023-04-25T03:27:46;98489.75;;;77.51;4.10
23643;BME280;11998;55.788;37.572;2023-04-25T03:28:47;98487.13;;;76.82;4.55
23643;BME280;11998;55.788;37.572;2023-04-25T03:29:47;98497.44;;;78.35;4.18
23643;BME280;11998;55.788;37.572;2023-04-25T03:30:48;98489.53;;;77.34;4.23
23643;BME280;11998;55.788;37.572;2023-04-25T03:31:49;98493.88;;;78.83;4.27
23643;BME280;11998;55.788;37.572;2023-04-25T03:32:49;98493.69;;;78.61;4.01
23643;BME280;11998;55.788;37.572;2023-04-25T03:33:50;98492.97;;;79.08;3.83
23643;BME280;11998;55.788;37.572;2023-04-25T03:34:50;98497.13;;;79.28;3.79
23643;BME280;11998;55.788;37.572;2023-04-25T03:35:51;98500.88;;;79.77;3.90
23643;BME280;11998;55.788;37.572;2023-04-25T03:36:51;98501.75;;;81.23;3.83
23643;BME280;11998;55.788;37.572;2023-04-25T03:37:52;98502.53;;;81.51;3.80
23643;BME280;11998;55.788;37.572;2023-04-25T03:38:53;98517.31;;;81.98;3.48
23643;BME280;11998;55.788;37.572;2023-04-25T03:39:53;98516.91;;;81.77;3.43
23643;BME280;11998;55.788;37.572;2023-04-25T03:40:54;98513.63;;;81.86;3.57
23643;BME280;11998;55.788;37.572;2023-04-25T03:41:56;98518.19;;;82.34;3.26
23643;BME280;11998;55.788;37.572;2023-04-25T03:42:56;98522.56;;;82.22;3.62
23643;BME280;11998;55.788;37.572;2023-04-25T03:43:57;98513.53;;;82.44;3.54
23643;BME280;11998;55.788;37.572;2023-04-25T03:44:57;98524.63;;;82.68;3.48
23643;BME280;11998;55.788;37.572;2023-04-25T03:45:58;98514.41;;;82.69;3.29
23643;BME280;11998;55.788;37.572;2023-04-25T03:46:59;98512.84;;;82.27;3.50
23643;BME280;11998;55.788;37.572;2023-04-25T03:47:59;98518.16;;;82.75;3.52
23643;BME280;11998;55.788;37.572;2023-04-25T03:49:00;98520.81;;;82.73;3.54
23643;BME280;11998;55.788;37.572;2023-04-25T03:50:00;98517.72;;;82.90;3.16
23643;BME280;11998;55.788;37.572;2023-04-25T03:51:02;98508.00;;;80.80;3.79
23643;BME280;11998;55.788;37.572;2023-04-25T03:52:03;98510.22;;;81.71;3.55
23643;BME280;11998;55.788;37.572;2023-04-25T03:53:03;98514.97;;;81.85;3.68
23643;BME280;11998;55.788;37.572;2023-04-25T03:54:04;98514.16;;;82.67;3.25
23643;BME280;11998;55.788;37.572;2023-04-25T03:55:05;98520.06;;;83.22;3.14
23643;BME280;11998;55.788;37.572;2023-04-25T03:56:06;98524.03;;;83.05;3.17
23643;BME280;11998;55.788;37.572;2023-04-25T03:57:06;98523.03;;;83.22;3.14
23643;BME280;11998;55.788;37.572;2023-04-25T03:58:07;98514.44;;;82.34;3.63
23643;BME280;11998;55.788;37.572;2023-04-25T03:59:08;98510.50;;;81.62;3.46
23643;BME280;11998;55.788;37.572;2023-04-25T04:00:09;98512.38;;;81.76;3.27
23643;BME280;11998;55.788;37.572;2023-04-25T04:01:10;98521.78;;;83.60;3.02
23643;BME280;11998;55.788;37.572;2023-04-25T04:02:11;98530.19;;;85.62;2.83
23643;BME280;11998;55.788;37.572;2023-04-25T04:03:11;98524.78;;;84.94;2.87
23643;BME280;11998;55.788;37.572;2023-04-25T04:04:12;98532.00;;;84.99;3.10
23643;BME280;11998;55.788;37.572;2023-04-25T04:05:12;98527.19;;;86.43;2.69
23643;BME280;11998;55.788;37.572;2023-04-25T04:06:13;98522.25;;;85.91;2.87
23643;BME280;11998;55.788;37.572;2023-04-25T04:07:13;98522.78;;;86.03;3.01
23643;BME280;11998;55.788;37.572;2023-04-25T04:08:14;98522.00;;;87.35;2.62
23643;BME280;11998;55.788;37.572;2023-04-25T04:09:15;98523.94;;;88.28;2.50
23643;BME280;11998;55.788;37.572;2023-04-25T04:10:15;98523.06;;;89.42;2.31
23643;BME280;11998;55.788;37.572;2023-04-25T04:11:16;98517.78;;;90.30;2.21
23643;BME280;11998;55.788;37.572;2023-04-25T04:12:16;98509.97;;;90.10;2.27
23643;BME280;11998;55.788;37.572;2023-04-25T04:13:17;98518.28;;;90.69;2.12
23643;BME280;11998;55.788;37.572;2023-04-25T04:14:17;98514.63;;;91.48;2.22
23643;BME280;11998;55.788;37.572;2023-04-25T04:15:18;98510.19;;;91.66;1.99
23643;BME280;11998;55.788;37.572;2023-04-25T04:16:18;98502.66;;;90.28;2.32
23643;BME280;11998;55.788;37.572;2023-04-25T04:17:19;98498.25;;;89.64;2.41
23643;BME280;11998;55.788;37.572;2023-04-25T04:18:20;98499.00;;;89.72;2.52
23643;BME280;11998;55.788;37.572;2023-04-25T04:19:20;98494.44;;;89.16;2.68
23643;BME280;11998;55.788;37.572;2023-04-25T04:20:21;98497.47;;;88.93;2.47
23643;BME280;11998;55.788;37.572;2023-04-25T04:21:21;98486.53;;;88.42;2.64
23643;BME280;11998;55.788;37.572;2023-04-25T04:22:23;98488.13;;;88.74;2.56
23643;BME280;11998;55.788;37.572;2023-04-25T04:23:23;98481.44;;;89.76;2.48
23643;BME280;11998;55.788;37.572;2023-04-25T04:24:24;98495.03;;;91.20;2.35
23643;BME280;11998;55.788;37.572;2023-04-25T04:25:25;98500.59;;;92.21;2.21
23643;BME280;11998;55.788;37.572;2023-04-25T04:26:26;98496.22;;;92.32;1.91
23643;BME280;11998;55.788;37.572;2023-04-25T04:27:26;98490.69;;;92.01;2.08
23643;BME280;11998;55.788;37.572;2023-04-25T04:28:28;98487.06;;;91.76;2.37
23643;BME280;11998;55.788;37.572;2023-04-25T04:29:30;98479.41;;;91.21;2.37
23643;BME280;11998;55.788;37.572;2023-04-25T04:30:30;98490.69;;;92.01;2.02
23643;BME280;11998;55.788;37.572;2023-04-25T04:31:31;98483.81;;;91.20;2.28
23643;BME280;11998;55.788;37.572;2023-04-25T04:32:32;98476.88;;;90.58;2.22
23643;BME280;11998;55.788;37.572;2023-04-25T04:33:34;98482.75;;;89.58;2.58
23643;BME280;11998;55.788;37.572;2023-04-25T04:34:35;98483.72;;;88.14;2.51
23643;BME280;11998;55.788;37.572;2023-04-25T04:35:36;98474.78;;;87.54;2.58
23643;BME280;11998;55.788;37.572;2023-04-25T04:36:37;98465.91;;;86.69;2.88
23643;BME280;11998;55.788;37.572;2023-04-25T04:37:37;98466.00;;;86.14;2.89
23643;BME280;11998;55.788;37.572;2023-04-25T04:38:38;98457.28;;;85.35;3.16
23643;BME280;11998;55.788;37.572;2023-04-25T04:39:39;98460.63;;;85.78;2.88
23643;BME280;11998;55.788;37.572;2023-04-25T04:40:40;98458.84;;;84.69;3.38
23643;BME280;11998;55.788;37.572;2023-04-25T04:41:43;98463.69;;;84.40;3.39
23643;BME280;11998;55.788;37.572;2023-04-25T04:42:44;98466.41;;;84.84;3.06
23643;BME280;11998;55.788;37.572;2023-04-25T04:43:48;98456.63;;;84.89;3.18
23643;BME280;11998;55.788;37.572;2023-04-25T04:44:49;98457.28;;;84.04;3.32
23643;BME280;11998;55.788;37.572;2023-04-25T04:45:50;98457.44;;;83.55;3.26
23643;BME280;11998;55.788;37.572;2023-04-25T04:46:50;98457.69;;;83.76;3.18
23643;BME280;11998;55.788;37.572;2023-04-25T04:47:51;98453.66;;;82.87;3.34
23643;BME280;11998;55.788;37.572;2023-04-25T04:48:52;98450.34;;;82.96;3.63
23643;BME280;11998;55.788;37.572;2023-04-25T04:49:53;98446.28;;;82.15;3.43
23643;BME280;11998;55.788;37.572;2023-04-25T04:50:54;98444.38;;;81.76;3.79
23643;BME280;11998;55.788;37.572;2023-04-25T04:51:54;98455.28;;;82.88;3.41
23643;BME280;11998;55.788;37.572;2023-04-25T04:52:55;98441.53;;;82.01;3.71
23643;BME280;11998;55.788;37.572;2023-04-25T04:53:55;98461.22;;;83.13;3.55
23643;BME280;11998;55.788;37.572;2023-04-25T04:54:58;98460.47;;;84.06;3.14
23643;BME280;11998;55.788;37.572;2023-04-25T04:55:59;98465.47;;;84.30;3.10
23643;BME280;11998;55.788;37.572;2023-04-25T04:56:59;98465.72;;;84.64;3.18
23643;BME280;11998;55.788;37.572;2023-04-25T04:58:00;98457.00;;;83.27;3.44
23643;BME280;11998;55.788;37.572;2023-04-25T04:59:00;98460.59;;;83.82;3.21
23643;BME280;11998;55.788;37.572;2023-04-25T05:00:03;98457.84;;;83.84;3.53
23643;BME280;11998;55.788;37.572;2023-04-25T05:01:11;98452.22;;;83.99;3.46
23643;BME280;11998;55.788;37.572;2023-04-25T05:02:12;98447.06;;;84.18;3.37
23643;BME280;11998;55.788;37.572;2023-04-25T05:03:12;98463.88;;;85.54;3.20
23643;BME280;11998;55.788;37.572;2023-04-25T05:04:13;98463.47;;;86.60;2.89
23643;BME280;11998;55.788;37.572;2023-04-25T05:05:14;98482.56;;;88.62;2.72
23643;BME280;11998;55.788;37.572;2023-04-25T05:06:14;98492.88;;;89.00;2.55
23643;BME280;11998;55.788;37.572;2023-04-25T05:07:15;98487.25;;;89.27;2.43
23643;BME280;11998;55.788;37.572;2023-04-25T05:08:15;98483.28;;;89.16;2.54
23643;BME280;11998;55.788;37.572;2023-04-25T05:09:16;98497.56;;;90.14;2.44
23643;BME280;11998;55.788;37.572;2023-04-25T05:10:18;98501.09;;;92.00;2.21
23643;BME280;11998;55.788;37.572;2023-04-25T05:11:19;98500.53;;;91.58;2.16
23643;BME280;11998;55.788;37.572;2023-04-25T05:12:19;98484.84;;;92.04;2.30
23643;BME280;11998;55.788;37.572;2023-04-25T05:13:20;98500.44;;;92.66;2.08
23643;BME280;11998;55.788;37.572;2023-04-25T05:14:20;98491.78;;;92.89;2.11
23643;BME280;11998;55.788;37.572;2023-04-25T05:15:22;98492.22;;;93.53;2.09
23643;BME280;11998;55.788;37.572;2023-04-25T05:16:22;98485.66;;;94.27;2.14
23643;BME280;11998;55.788;37.572;2023-04-25T05:17:23;98483.81;;;94.21;1.95
23643;BME280;11998;55.788;37.572;2023-04-25T05:18:23;98494.47;;;95.29;1.65
23643;BME280;11998;55.788;37.572;2023-04-25T05:19:24;98488.56;;;96.46;1.60
23643;BME280;11998;55.788;37.572;2023-04-25T05:20:24;98474.69;;;96.41;1.70
23643;BME280;11998;55.788;37.572;2023-04-25T05:21:25;98482.06;;;97.64;1.76
23643;BME280;11998;55.788;37.572;2023-04-25T05:22:25;98475.81;;;97.34;1.47